Observations for BOLOGNA BORGO AFB, Italy (LIPE)

LIPE 201950Z VRB01KT 5000 BR NSC 06/04 Q1025
LIPE 201920Z VRB01KT 5000 BR NSC 06/02 Q1025
LIPE 201850Z 00000KT 6000 NSC 07/04 Q1025   
LIPE 201820Z 06003KT 6000 NSC 08/04 Q1025   
LIPE 201750Z 07002KT 6000 NSC 08/04 Q1024   
LIPE 201720Z 08003KT 6000 NSC 09/04 Q1024   
LIPE 201650Z 05003KT 6000 NSC 11/05 Q1024   
LIPE 201620Z 04002KT 7000 NSC 12/05 Q1024   
LIPE 201550Z VRB02KT 7000 NSC 12/04 Q1024   
LIPE 201520Z 08003KT 020V130 7000 NSC 12/05 Q1024   
LIPE 201450Z 04003KT 350V100 7000 NSC 12/05 Q1024   
LIPE 201420Z VRB03KT 7000 NSC 12/05 Q1024   
LIPE 201350Z 02004KT 330V090 7000 NSC 12/05 Q1024   
LIPE 201320Z 36004KT 290V070 7000 NSC 12/05 Q1024   
LIPE 201250Z VRB02KT 7000 NSC 11/05 Q1025   
LIPE 201220Z 34004KT 290V050 7000 NSC 11/05 Q1025   
LIPE 201150Z VRB04KT 7000 NSC 10/04 Q1025   
LIPE 201120Z 36004KT 320V050 6000 NSC 09/05 Q1025   
LIPE 201050Z 36003KT 310V050 6000 NSC 08/03 Q1026   
LIPE 201020Z VRB03KT 6000 NSC 07/03 Q1026   
LIPE 200950Z VRB02KT 6000 NSC 06/04 Q1026   
LIPE 200920Z VRB02KT 5000 BR NSC 04/04 Q1026
LIPE 200850Z VRB02KT 4000 BR FEW050 04/03 Q1025 
LIPE 200820Z VRB01KT 3000 BR BKN045 02/02 Q1025 
LIPE 200750Z VRB01KT 2000 R12/P1500N R30/1400U BR BKN045 01/00 Q1025
LIPE 200720Z VRB01KT 0800 R12/1100U R30/1000V1300U FZFG SCT001 BKN050 M00/M00 Q1025 
LIPE 200650Z VRB01KT 0150 R12/0275N R30/0250N FZFG BKN001 BKN050 M01/M01 Q1024  
LIPE 200620Z VRB01KT 0250 R12/0650N R30/0250N FZFG BKN001 M01/M01 Q1024 
LIPE 200550Z VRB01KT 0050 R12/0325N R30/0225N FZFG VV001 M01/M02 Q1024  
LIPE 200520Z 34002KT 0050 R12/0300N R30/0200N FZFG VV001 M01/M02 Q1024  
LIPE 200450Z VRB02KT 0050 R12/0300N R30/0200N FZFG VV001 M02/M02 Q1024  
LIPE 200420Z VRB02KT 0100 R12/0325N R30/0200N FZFG VV001 M02/M02 Q1024  
LIPE 200350Z 34002KT 0800 R12/0300D R30/0600V0650N FZFG SCT001 M01/M01 Q1023
LIPE 200320Z 30002KT 1300 R12/1400D R30/0650U BR SCT050 M01/M01 Q1023 REFZFG
LIPE 200250Z 23004KT 0100 R12/0600U R30/0600U FZFG VV001 M00/M01 Q1023  
LIPE 200220Z 23004KT 0100 R12/0375N R30/0250N FZFG VV001 M00/M00 Q1024  
LIPE 200150Z 21004KT 0100 R12/0300N R30/0200N FG VV001 01/00 Q1024  
LIPE 200120Z VRB02KT 0100 R12/0225N R30/0200N FG VV001 01/01 Q1024  
LIPE 200050Z VRB02KT 0100 R12/0250N R30/0200N FG VV001 01/00 Q1024  
LIPE 200020Z VRB01KT 0100 R12/0225N R30/0200N FG VV001 00/00 Q1024  
LIPE 192350Z 36003KT 320V020 0100 R12/0250N R30/0175N FG VV001 01/00 Q1023  
LIPE 192320Z 03003KT 1200 R12/0600VP1500D R30/P1500N BR SCT001 01/00 Q1023  
LIPE 192250Z 01003KT 6000 NSC 03/01 Q1023   
LIPE 192220Z 31003KT 270V360 CAVOK 04/01 Q1023  
LIPE 192150Z 25004KT 220V290 CAVOK 05/01 Q1023  
LIPE 192120Z 20005KT CAVOK 07/02 Q1022  
LIPE 192050Z 21004KT CAVOK 08/02 Q1022  
LIPE 192020Z 20004KT CAVOK 08/02 Q1022  
LIPE 191950Z VRB02KT CAVOK 09/02 Q1022  
LIPE 191920Z 19006KT CAVOK 10/02 Q1022